sensor_id;sensor_type;location;lat;lon;timestamp;P1;durP1;ratioP1;P2;durP2;ratioP2
28587;SDS011;15787;49.662;10.162;2022-10-29T00:00:17;8.55;;;3.78;;
28587;SDS011;15787;49.662;10.162;2022-10-29T00:02:45;11.82;;;4.07;;
28587;SDS011;15787;49.662;10.162;2022-10-29T00:05:13;10.85;;;5.30;;
28587;SDS011;15787;49.662;10.162;2022-10-29T00:07:41;11.50;;;4.68;;
28587;SDS011;15787;49.662;10.162;2022-10-29T00:10:09;10.82;;;4.13;;
28587;SDS011;15787;49.662;10.162;2022-10-29T00:12:37;9.63;;;4.85;;
28587;SDS011;15787;49.662;10.162;2022-10-29T00:15:05;15.38;;;4.32;;
28587;SDS011;15787;49.662;10.162;2022-10-29T00:17:35;11.18;;;5.35;;
28587;SDS011;15787;49.662;10.162;2022-10-29T00:20:03;16.38;;;5.80;;
28587;SDS011;15787;49.662;10.162;2022-10-29T00:22:37;15.95;;;6.20;;
28587;SDS011;15787;49.662;10.162;2022-10-29T00:25:05;11.80;;;5.18;;
28587;SDS011;15787;49.662;10.162;2022-10-29T00:27:33;13.05;;;4.57;;
28587;SDS011;15787;49.662;10.162;2022-10-29T00:30:01;12.57;;;4.93;;
28587;SDS011;15787;49.662;10.162;2022-10-29T00:32:30;17.10;;;5.60;;
28587;SDS011;15787;49.662;10.162;2022-10-29T00:34:59;10.05;;;4.60;;
28587;SDS011;15787;49.662;10.162;2022-10-29T00:37:27;12.18;;;5.40;;
28587;SDS011;15787;49.662;10.162;2022-10-29T00:39:54;13.32;;;5.00;;
28587;SDS011;15787;49.662;10.162;2022-10-29T00:42:23;12.32;;;5.30;;
28587;SDS011;15787;49.662;10.162;2022-10-29T00:44:51;13.25;;;4.45;;
28587;SDS011;15787;49.662;10.162;2022-10-29T00:47:20;13.80;;;5.10;;
28587;SDS011;15787;49.662;10.162;2022-10-29T00:49:50;11.77;;;4.63;;
28587;SDS011;15787;49.662;10.162;2022-10-29T00:52:23;8.55;;;3.80;;
28587;SDS011;15787;49.662;10.162;2022-10-29T00:54:56;10.77;;;4.15;;
28587;SDS011;15787;49.662;10.162;2022-10-29T00:57:28;9.35;;;3.88;;
28587;SDS011;15787;49.662;10.162;2022-10-29T01:00:02;9.00;;;3.95;;
28587;SDS011;15787;49.662;10.162;2022-10-29T01:02:33;11.10;;;3.60;;
28587;SDS011;15787;49.662;10.162;2022-10-29T01:05:03;11.82;;;4.68;;
28587;SDS011;15787;49.662;10.162;2022-10-29T01:07:35;9.70;;;4.13;;
28587;SDS011;15787;49.662;10.162;2022-10-29T01:10:04;9.18;;;4.28;;
28587;SDS011;15787;49.662;10.162;2022-10-29T01:15:25;12.57;;;3.95;;
28587;SDS011;15787;49.662;10.162;2022-10-29T01:18:02;17.40;;;5.38;;
28587;SDS011;15787;49.662;10.162;2022-10-29T01:20:47;14.85;;;5.07;;
28587;SDS011;15787;49.662;10.162;2022-10-29T01:26:46;12.50;;;4.63;;
28587;SDS011;15787;49.662;10.162;2022-10-29T01:29:40;14.13;;;5.75;;
28587;SDS011;15787;49.662;10.162;2022-10-29T01:32:26;10.82;;;4.20;;
28587;SDS011;15787;49.662;10.162;2022-10-29T01:35:01;16.13;;;4.75;;
28587;SDS011;15787;49.662;10.162;2022-10-29T01:37:35;10.45;;;4.28;;
28587;SDS011;15787;49.662;10.162;2022-10-29T01:40:12;11.95;;;4.40;;
28587;SDS011;15787;49.662;10.162;2022-10-29T01:42:49;12.05;;;4.70;;
28587;SDS011;15787;49.662;10.162;2022-10-29T01:45:25;12.48;;;4.75;;
28587;SDS011;15787;49.662;10.162;2022-10-29T01:48:00;10.20;;;4.97;;
28587;SDS011;15787;49.662;10.162;2022-10-29T01:50:33;11.07;;;4.13;;
28587;SDS011;15787;49.662;10.162;2022-10-29T01:53:05;9.35;;;3.95;;
28587;SDS011;15787;49.662;10.162;2022-10-29T01:55:33;8.38;;;4.55;;
28587;SDS011;15787;49.662;10.162;2022-10-29T01:58:01;10.27;;;4.45;;
28587;SDS011;15787;49.662;10.162;2022-10-29T02:00:31;7.95;;;3.92;;
28587;SDS011;15787;49.662;10.162;2022-10-29T02:03:13;12.88;;;4.40;;
28587;SDS011;15787;49.662;10.162;2022-10-29T02:05:51;12.50;;;4.85;;
28587;SDS011;15787;49.662;10.162;2022-10-29T02:08:28;17.15;;;7.03;;
28587;SDS011;15787;49.662;10.162;2022-10-29T02:11:06;10.80;;;4.70;;
28587;SDS011;15787;49.662;10.162;2022-10-29T02:13:39;13.43;;;4.57;;
28587;SDS011;15787;49.662;10.162;2022-10-29T02:16:10;14.73;;;5.25;;
28587;SDS011;15787;49.662;10.162;2022-10-29T02:18:43;11.18;;;4.55;;
28587;SDS011;15787;49.662;10.162;2022-10-29T02:21:14;15.00;;;5.32;;
28587;SDS011;15787;49.662;10.162;2022-10-29T02:23:43;9.20;;;4.45;;
28587;SDS011;15787;49.662;10.162;2022-10-29T02:26:12;12.07;;;5.35;;
28587;SDS011;15787;49.662;10.162;2022-10-29T02:28:39;7.90;;;4.63;;
28587;SDS011;15787;49.662;10.162;2022-10-29T02:31:08;12.02;;;4.43;;
28587;SDS011;15787;49.662;10.162;2022-10-29T02:33:36;9.85;;;4.00;;
28587;SDS011;15787;49.662;10.162;2022-10-29T02:36:06;10.82;;;4.05;;
28587;SDS011;15787;49.662;10.162;2022-10-29T02:38:34;11.48;;;4.45;;
28587;SDS011;15787;49.662;10.162;2022-10-29T02:41:02;11.30;;;5.55;;
28587;SDS011;15787;49.662;10.162;2022-10-29T02:43:31;12.90;;;4.65;;
28587;SDS011;15787;49.662;10.162;2022-10-29T02:46:12;9.32;;;5.15;;
28587;SDS011;15787;49.662;10.162;2022-10-29T02:48:41;10.70;;;4.38;;
28587;SDS011;15787;49.662;10.162;2022-10-29T02:51:11;7.63;;;4.18;;
28587;SDS011;15787;49.662;10.162;2022-10-29T02:53:40;10.32;;;5.05;;
28587;SDS011;15787;49.662;10.162;2022-10-29T02:56:08;8.77;;;4.20;;
28587;SDS011;15787;49.662;10.162;2022-10-29T02:58:37;12.35;;;4.55;;
28587;SDS011;15787;49.662;10.162;2022-10-29T03:01:05;15.27;;;4.68;;
28587;SDS011;15787;49.662;10.162;2022-10-29T03:03:33;13.98;;;4.68;;
28587;SDS011;15787;49.662;10.162;2022-10-29T03:06:01;7.13;;;4.55;;
28587;SDS011;15787;49.662;10.162;2022-10-29T03:08:31;11.63;;;4.50;;
28587;SDS011;15787;49.662;10.162;2022-10-29T03:10:59;11.48;;;4.38;;
28587;SDS011;15787;49.662;10.162;2022-10-29T03:13:27;12.80;;;5.25;;
28587;SDS011;15787;49.662;10.162;2022-10-29T03:15:55;7.60;;;3.90;;
28587;SDS011;15787;49.662;10.162;2022-10-29T03:18:23;15.43;;;4.40;;
28587;SDS011;15787;49.662;10.162;2022-10-29T03:20:51;8.27;;;4.40;;
28587;SDS011;15787;49.662;10.162;2022-10-29T03:23:19;10.63;;;4.57;;
28587;SDS011;15787;49.662;10.162;2022-10-29T03:25:49;9.18;;;4.20;;
28587;SDS011;15787;49.662;10.162;2022-10-29T03:28:22;12.32;;;5.40;;
28587;SDS011;15787;49.662;10.162;2022-10-29T03:30:53;12.15;;;6.22;;
28587;SDS011;15787;49.662;10.162;2022-10-29T03:33:21;14.57;;;6.07;;
28587;SDS011;15787;49.662;10.162;2022-10-29T03:35:54;15.52;;;6.43;;
28587;SDS011;15787;49.662;10.162;2022-10-29T03:38:23;17.55;;;5.72;;
28587;SDS011;15787;49.662;10.162;2022-10-29T03:40:53;11.80;;;4.70;;
28587;SDS011;15787;49.662;10.162;2022-10-29T03:43:21;15.18;;;5.18;;
28587;SDS011;15787;49.662;10.162;2022-10-29T03:45:49;9.25;;;4.20;;
28587;SDS011;15787;49.662;10.162;2022-10-29T03:48:18;10.93;;;4.78;;
28587;SDS011;15787;49.662;10.162;2022-10-29T03:50:52;8.88;;;4.72;;
28587;SDS011;15787;49.662;10.162;2022-10-29T03:53:21;10.45;;;4.22;;
28587;SDS011;15787;49.662;10.162;2022-10-29T03:55:49;10.02;;;5.38;;
28587;SDS011;15787;49.662;10.162;2022-10-29T03:58:19;9.73;;;4.97;;
28587;SDS011;15787;49.662;10.162;2022-10-29T04:00:52;10.17;;;4.80;;
28587;SDS011;15787;49.662;10.162;2022-10-29T04:03:20;8.07;;;4.10;;
28587;SDS011;15787;49.662;10.162;2022-10-29T04:05:49;13.13;;;4.03;;
28587;SDS011;15787;49.662;10.162;2022-10-29T04:08:16;10.20;;;4.50;;
28587;SDS011;15787;49.662;10.162;2022-10-29T04:10:44;12.30;;;4.40;;
28587;SDS011;15787;49.662;10.162;2022-10-29T04:13:13;9.52;;;4.68;;
28587;SDS011;15787;49.662;10.162;2022-10-29T04:15:43;12.27;;;4.07;;
28587;SDS011;15787;49.662;10.162;2022-10-29T04:18:11;19.73;;;5.93;;
28587;SDS011;15787;49.662;10.162;2022-10-29T04:20:40;9.57;;;4.85;;
28587;SDS011;15787;49.662;10.162;2022-10-29T04:23:28;9.23;;;4.85;;
28587;SDS011;15787;49.662;10.162;2022-10-29T04:26:16;10.77;;;5.03;;
28587;SDS011;15787;49.662;10.162;2022-10-29T04:29:04;13.48;;;4.75;;
28587;SDS011;15787;49.662;10.162;2022-10-29T04:31:35;11.63;;;5.07;;
28587;SDS011;15787;49.662;10.162;2022-10-29T04:34:03;12.30;;;6.00;;
28587;SDS011;15787;49.662;10.162;2022-10-29T04:36:31;11.65;;;5.00;;
28587;SDS011;15787;49.662;10.162;2022-10-29T04:38:59;13.55;;;5.40;;
28587;SDS011;15787;49.662;10.162;2022-10-29T04:41:27;14.73;;;5.38;;
28587;SDS011;15787;49.662;10.162;2022-10-29T04:43:55;12.50;;;5.50;;
28587;SDS011;15787;49.662;10.162;2022-10-29T04:46:23;12.13;;;5.47;;
28587;SDS011;15787;49.662;10.162;2022-10-29T04:48:52;13.63;;;4.82;;
28587;SDS011;15787;49.662;10.162;2022-10-29T04:51:21;18.70;;;5.18;;
28587;SDS011;15787;49.662;10.162;2022-10-29T04:53:50;13.13;;;5.68;;
28587;SDS011;15787;49.662;10.162;2022-10-29T04:56:18;14.70;;;6.35;;
28587;SDS011;15787;49.662;10.162;2022-10-29T04:58:48;16.70;;;5.07;;
28587;SDS011;15787;49.662;10.162;2022-10-29T05:01:17;12.10;;;5.07;;
28587;SDS011;15787;49.662;10.162;2022-10-29T05:03:46;13.60;;;4.75;;
28587;SDS011;15787;49.662;10.162;2022-10-29T05:06:15;12.70;;;5.25;;
28587;SDS011;15787;49.662;10.162;2022-10-29T05:08:43;11.20;;;4.88;;
28587;SDS011;15787;49.662;10.162;2022-10-29T05:11:10;13.70;;;6.95;;
28587;SDS011;15787;49.662;10.162;2022-10-29T05:13:38;13.63;;;5.50;;
28587;SDS011;15787;49.662;10.162;2022-10-29T05:16:07;14.45;;;6.25;;
28587;SDS011;15787;49.662;10.162;2022-10-29T05:18:35;13.07;;;6.13;;
28587;SDS011;15787;49.662;10.162;2022-10-29T05:21:04;12.70;;;5.68;;
28587;SDS011;15787;49.662;10.162;2022-10-29T05:23:33;10.20;;;5.15;;
28587;SDS011;15787;49.662;10.162;2022-10-29T05:26:01;15.90;;;6.53;;
28587;SDS011;15787;49.662;10.162;2022-10-29T05:28:29;13.02;;;6.80;;
28587;SDS011;15787;49.662;10.162;2022-10-29T05:30:59;16.02;;;6.90;;
28587;SDS011;15787;49.662;10.162;2022-10-29T05:33:28;21.45;;;7.95;;
28587;SDS011;15787;49.662;10.162;2022-10-29T05:35:57;11.25;;;5.88;;
28587;SDS011;15787;49.662;10.162;2022-10-29T05:38:28;16.02;;;5.63;;
28587;SDS011;15787;49.662;10.162;2022-10-29T05:40:58;12.82;;;6.20;;
28587;SDS011;15787;49.662;10.162;2022-10-29T05:43:27;15.45;;;7.13;;
28587;SDS011;15787;49.662;10.162;2022-10-29T05:45:55;19.30;;;8.45;;
28587;SDS011;15787;49.662;10.162;2022-10-29T05:48:23;14.48;;;7.55;;
28587;SDS011;15787;49.662;10.162;2022-10-29T05:50:51;15.57;;;7.25;;
28587;SDS011;15787;49.662;10.162;2022-10-29T05:53:19;14.45;;;6.95;;
28587;SDS011;15787;49.662;10.162;2022-10-29T05:55:46;17.75;;;8.02;;
28587;SDS011;15787;49.662;10.162;2022-10-29T05:58:16;12.57;;;6.65;;
28587;SDS011;15787;49.662;10.162;2022-10-29T06:00:44;15.18;;;7.78;;
28587;SDS011;15787;49.662;10.162;2022-10-29T06:03:13;14.10;;;7.10;;
28587;SDS011;15787;49.662;10.162;2022-10-29T06:05:42;13.77;;;7.38;;
28587;SDS011;15787;49.662;10.162;2022-10-29T06:08:11;17.10;;;8.35;;
28587;SDS011;15787;49.662;10.162;2022-10-29T06:10:39;12.32;;;6.63;;
28587;SDS011;15787;49.662;10.162;2022-10-29T06:13:10;11.77;;;6.97;;
28587;SDS011;15787;49.662;10.162;2022-10-29T06:15:40;17.10;;;7.60;;
28587;SDS011;15787;49.662;10.162;2022-10-29T06:18:08;17.37;;;7.30;;
28587;SDS011;15787;49.662;10.162;2022-10-29T06:20:37;14.25;;;6.72;;
28587;SDS011;15787;49.662;10.162;2022-10-29T06:23:05;16.20;;;7.63;;
28587;SDS011;15787;49.662;10.162;2022-10-29T06:25:33;15.35;;;9.18;;
28587;SDS011;15787;49.662;10.162;2022-10-29T06:28:02;34.60;;;9.55;;
28587;SDS011;15787;49.662;10.162;2022-10-29T06:30:32;21.58;;;8.80;;
28587;SDS011;15787;49.662;10.162;2022-10-29T06:33:03;24.95;;;9.38;;
28587;SDS011;15787;49.662;10.162;2022-10-29T06:35:31;20.38;;;8.05;;
28587;SDS011;15787;49.662;10.162;2022-10-29T06:38:02;20.90;;;8.13;;
28587;SDS011;15787;49.662;10.162;2022-10-29T06:40:37;16.10;;;6.60;;
28587;SDS011;15787;49.662;10.162;2022-10-29T06:43:06;14.98;;;6.53;;
28587;SDS011;15787;49.662;10.162;2022-10-29T06:45:36;15.98;;;6.63;;
28587;SDS011;15787;49.662;10.162;2022-10-29T06:48:06;13.23;;;6.15;;
28587;SDS011;15787;49.662;10.162;2022-10-29T06:50:34;11.63;;;6.05;;
28587;SDS011;15787;49.662;10.162;2022-10-29T06:53:03;11.05;;;5.97;;
28587;SDS011;15787;49.662;10.162;2022-10-29T06:55:32;13.60;;;5.40;;
28587;SDS011;15787;49.662;10.162;2022-10-29T06:58:01;10.98;;;6.20;;
28587;SDS011;15787;49.662;10.162;2022-10-29T07:00:30;13.50;;;6.43;;
28587;SDS011;15787;49.662;10.162;2022-10-29T07:03:00;13.27;;;6.17;;
28587;SDS011;15787;49.662;10.162;2022-10-29T07:08:00;11.02;;;5.97;;
28587;SDS011;15787;49.662;10.162;2022-10-29T07:10:29;19.63;;;6.65;;
28587;SDS011;15787;49.662;10.162;2022-10-29T07:12:58;8.17;;;5.20;;
28587;SDS011;15787;49.662;10.162;2022-10-29T07:15:27;12.73;;;5.88;;
28587;SDS011;15787;49.662;10.162;2022-10-29T07:17:57;8.75;;;6.00;;
28587;SDS011;15787;49.662;10.162;2022-10-29T07:20:27;14.35;;;6.82;;
28587;SDS011;15787;49.662;10.162;2022-10-29T07:22:57;15.50;;;7.82;;
28587;SDS011;15787;49.662;10.162;2022-10-29T07:27:54;17.65;;;6.22;;
28587;SDS011;15787;49.662;10.162;2022-10-29T07:30:30;11.48;;;6.40;;
28587;SDS011;15787;49.662;10.162;2022-10-29T07:32:58;14.35;;;6.28;;
28587;SDS011;15787;49.662;10.162;2022-10-29T07:35:26;14.05;;;6.90;;
28587;SDS011;15787;49.662;10.162;2022-10-29T07:37:58;9.85;;;5.95;;
28587;SDS011;15787;49.662;10.162;2022-10-29T07:40:34;18.02;;;6.80;;
28587;SDS011;15787;49.662;10.162;2022-10-29T07:43:02;14.00;;;7.43;;
28587;SDS011;15787;49.662;10.162;2022-10-29T07:45:30;15.77;;;7.60;;
28587;SDS011;15787;49.662;10.162;2022-10-29T07:47:58;16.42;;;7.55;;
28587;SDS011;15787;49.662;10.162;2022-10-29T07:50:28;16.10;;;7.95;;
28587;SDS011;15787;49.662;10.162;2022-10-29T07:52:59;14.35;;;6.85;;
28587;SDS011;15787;49.662;10.162;2022-10-29T07:55:27;14.90;;;7.25;;
28587;SDS011;15787;49.662;10.162;2022-10-29T07:57:56;15.38;;;7.50;;
28587;SDS011;15787;49.662;10.162;2022-10-29T08:02:55;9.85;;;6.18;;
28587;SDS011;15787;49.662;10.162;2022-10-29T08:05:24;17.60;;;6.57;;
28587;SDS011;15787;49.662;10.162;2022-10-29T08:07:53;16.52;;;5.93;;
28587;SDS011;15787;49.662;10.162;2022-10-29T08:10:23;14.98;;;5.72;;
28587;SDS011;15787;49.662;10.162;2022-10-29T08:12:52;18.45;;;7.00;;
28587;SDS011;15787;49.662;10.162;2022-10-29T08:15:22;11.55;;;5.93;;
28587;SDS011;15787;49.662;10.162;2022-10-29T08:17:51;11.63;;;6.07;;
28587;SDS011;15787;49.662;10.162;2022-10-29T08:20:20;13.75;;;6.72;;
28587;SDS011;15787;49.662;10.162;2022-10-29T08:22:49;10.75;;;6.07;;
28587;SDS011;15787;49.662;10.162;2022-10-29T08:25:17;12.20;;;5.72;;
28587;SDS011;15787;49.662;10.162;2022-10-29T08:27:51;13.32;;;5.82;;
28587;SDS011;15787;49.662;10.162;2022-10-29T08:30:25;17.20;;;6.10;;
28587;SDS011;15787;49.662;10.162;2022-10-29T08:32:54;9.68;;;5.13;;
28587;SDS011;15787;49.662;10.162;2022-10-29T08:35:22;10.65;;;5.55;;
28587;SDS011;15787;49.662;10.162;2022-10-29T08:37:50;12.70;;;5.15;;
28587;SDS011;15787;49.662;10.162;2022-10-29T08:40:23;12.00;;;5.18;;
28587;SDS011;15787;49.662;10.162;2022-10-29T08:45:59;11.38;;;4.82;;
28587;SDS011;15787;49.662;10.162;2022-10-29T08:48:35;15.27;;;5.20;;
28587;SDS011;15787;49.662;10.162;2022-10-29T08:51:07;10.15;;;5.32;;
28587;SDS011;15787;49.662;10.162;2022-10-29T08:53:41;10.27;;;4.97;;
28587;SDS011;15787;49.662;10.162;2022-10-29T08:56:31;12.73;;;5.97;;
28587;SDS011;15787;49.662;10.162;2022-10-29T08:59:02;12.32;;;4.97;;
28587;SDS011;15787;49.662;10.162;2022-10-29T09:01:34;12.32;;;5.20;;
28587;SDS011;15787;49.662;10.162;2022-10-29T09:04:07;10.38;;;4.68;;
28587;SDS011;15787;49.662;10.162;2022-10-29T09:06:47;14.15;;;6.03;;
28587;SDS011;15787;49.662;10.162;2022-10-29T09:09:30;17.15;;;6.03;;
28587;SDS011;15787;49.662;10.162;2022-10-29T09:12:12;14.00;;;5.28;;
28587;SDS011;15787;49.662;10.162;2022-10-29T09:15:04;9.18;;;5.25;;
28587;SDS011;15787;49.662;10.162;2022-10-29T09:17:48;12.00;;;4.88;;
28587;SDS011;15787;49.662;10.162;2022-10-29T09:20:34;12.45;;;4.70;;
28587;SDS011;15787;49.662;10.162;2022-10-29T09:23:11;13.93;;;5.80;;
28587;SDS011;15787;49.662;10.162;2022-10-29T09:25:48;15.88;;;5.35;;
28587;SDS011;15787;49.662;10.162;2022-10-29T09:28:23;13.88;;;5.82;;
28587;SDS011;15787;49.662;10.162;2022-10-29T09:31:01;12.10;;;6.00;;
28587;SDS011;15787;49.662;10.162;2022-10-29T09:33:36;18.15;;;5.40;;
28587;SDS011;15787;49.662;10.162;2022-10-29T09:36:10;14.10;;;5.55;;
28587;SDS011;15787;49.662;10.162;2022-10-29T09:38:50;10.70;;;5.40;;
28587;SDS011;15787;49.662;10.162;2022-10-29T09:41:21;11.27;;;5.35;;
28587;SDS011;15787;49.662;10.162;2022-10-29T09:43:55;16.63;;;6.40;;
28587;SDS011;15787;49.662;10.162;2022-10-29T09:46:31;15.43;;;6.10;;
28587;SDS011;15787;49.662;10.162;2022-10-29T09:49:11;13.65;;;5.25;;
28587;SDS011;15787;49.662;10.162;2022-10-29T09:51:51;11.02;;;4.97;;
28587;SDS011;15787;49.662;10.162;2022-10-29T09:54:23;10.75;;;4.93;;
28587;SDS011;15787;49.662;10.162;2022-10-29T09:56:53;15.70;;;5.30;;
28587;SDS011;15787;49.662;10.162;2022-10-29T09:59:28;9.35;;;5.30;;
28587;SDS011;15787;49.662;10.162;2022-10-29T10:02:00;13.10;;;5.28;;
28587;SDS011;15787;49.662;10.162;2022-10-29T10:04:31;16.00;;;5.63;;
28587;SDS011;15787;49.662;10.162;2022-10-29T10:07:04;14.05;;;4.88;;
28587;SDS011;15787;49.662;10.162;2022-10-29T10:09:48;18.13;;;6.32;;
28587;SDS011;15787;49.662;10.162;2022-10-29T10:12:18;13.80;;;5.57;;
28587;SDS011;15787;49.662;10.162;2022-10-29T10:14:47;12.35;;;6.38;;
28587;SDS011;15787;49.662;10.162;2022-10-29T10:17:15;17.27;;;6.13;;
28587;SDS011;15787;49.662;10.162;2022-10-29T10:19:45;19.05;;;5.70;;
28587;SDS011;15787;49.662;10.162;2022-10-29T10:22:17;11.98;;;5.05;;
28587;SDS011;15787;49.662;10.162;2022-10-29T10:24:47;12.93;;;5.30;;
28587;SDS011;15787;49.662;10.162;2022-10-29T10:27:27;17.85;;;5.55;;
28587;SDS011;15787;49.662;10.162;2022-10-29T10:30:06;13.88;;;5.38;;
28587;SDS011;15787;49.662;10.162;2022-10-29T10:32:39;12.70;;;4.93;;
28587;SDS011;15787;49.662;10.162;2022-10-29T10:35:26;11.77;;;5.53;;
28587;SDS011;15787;49.662;10.162;2022-10-29T10:37:55;12.70;;;4.78;;
28587;SDS011;15787;49.662;10.162;2022-10-29T10:40:26;14.48;;;5.30;;
28587;SDS011;15787;49.662;10.162;2022-10-29T10:42:54;12.30;;;5.10;;
28587;SDS011;15787;49.662;10.162;2022-10-29T10:45:23;9.88;;;4.82;;
28587;SDS011;15787;49.662;10.162;2022-10-29T10:47:54;15.00;;;7.05;;
28587;SDS011;15787;49.662;10.162;2022-10-29T10:50:27;14.05;;;4.85;;
28587;SDS011;15787;49.662;10.162;2022-10-29T10:52:57;19.27;;;5.72;;
28587;SDS011;15787;49.662;10.162;2022-10-29T10:55:27;11.43;;;5.40;;
28587;SDS011;15787;49.662;10.162;2022-10-29T10:58:00;13.10;;;5.05;;
28587;SDS011;15787;49.662;10.162;2022-10-29T11:00:34;11.15;;;5.10;;
28587;SDS011;15787;49.662;10.162;2022-10-29T11:03:09;13.25;;;5.03;;
28587;SDS011;15787;49.662;10.162;2022-10-29T11:05:43;17.08;;;5.47;;
28587;SDS011;15787;49.662;10.162;2022-10-29T11:08:17;13.57;;;4.90;;
28587;SDS011;15787;49.662;10.162;2022-10-29T11:10:51;11.35;;;5.03;;
28587;SDS011;15787;49.662;10.162;2022-10-29T11:13:22;14.10;;;4.75;;
28587;SDS011;15787;49.662;10.162;2022-10-29T11:15:55;15.38;;;4.78;;
28587;SDS011;15787;49.662;10.162;2022-10-29T11:18:29;11.25;;;5.38;;
28587;SDS011;15787;49.662;10.162;2022-10-29T11:21:04;17.00;;;5.22;;
28587;SDS011;15787;49.662;10.162;2022-10-29T11:23:40;12.18;;;4.68;;
28587;SDS011;15787;49.662;10.162;2022-10-29T11:26:14;21.55;;;5.22;;
28587;SDS011;15787;49.662;10.162;2022-10-29T11:28:47;14.20;;;4.80;;
28587;SDS011;15787;49.662;10.162;2022-10-29T11:31:23;14.82;;;4.60;;
28587;SDS011;15787;49.662;10.162;2022-10-29T11:33:56;13.07;;;4.57;;
28587;SDS011;15787;49.662;10.162;2022-10-29T11:36:35;13.55;;;4.70;;
28587;SDS011;15787;49.662;10.162;2022-10-29T11:39:08;14.77;;;4.57;;
28587;SDS011;15787;49.662;10.162;2022-10-29T11:41:39;17.45;;;4.75;;
28587;SDS011;15787;49.662;10.162;2022-10-29T11:44:13;15.25;;;4.97;;
28587;SDS011;15787;49.662;10.162;2022-10-29T11:46:47;10.00;;;4.13;;
28587;SDS011;15787;49.662;10.162;2022-10-29T11:49:29;13.95;;;4.30;;
28587;SDS011;15787;49.662;10.162;2022-10-29T11:52:09;15.05;;;4.35;;
28587;SDS011;15787;49.662;10.162;2022-10-29T11:54:42;17.48;;;5.05;;
28587;SDS011;15787;49.662;10.162;2022-10-29T11:57:18;14.88;;;4.85;;
28587;SDS011;15787;49.662;10.162;2022-10-29T12:03:03;10.93;;;3.22;;
28587;SDS011;15787;49.662;10.162;2022-10-29T12:05:40;11.40;;;3.40;;
28587;SDS011;15787;49.662;10.162;2022-10-29T12:08:23;11.25;;;2.78;;
28587;SDS011;15787;49.662;10.162;2022-10-29T12:11:04;15.18;;;3.55;;
28587;SDS011;15787;49.662;10.162;2022-10-29T12:13:44;13.50;;;3.08;;
28587;SDS011;15787;49.662;10.162;2022-10-29T12:16:23;14.07;;;3.10;;
28587;SDS011;15787;49.662;10.162;2022-10-29T12:19:00;12.60;;;3.58;;
28587;SDS011;15787;49.662;10.162;2022-10-29T12:21:41;13.73;;;3.10;;
28587;SDS011;15787;49.662;10.162;2022-10-29T12:24:25;10.20;;;2.45;;
28587;SDS011;15787;49.662;10.162;2022-10-29T12:27:06;15.88;;;2.95;;
28587;SDS011;15787;49.662;10.162;2022-10-29T12:29:41;14.95;;;3.22;;
28587;SDS011;15787;49.662;10.162;2022-10-29T12:32:18;18.23;;;3.13;;
28587;SDS011;15787;49.662;10.162;2022-10-29T12:34:51;19.73;;;3.00;;
28587;SDS011;15787;49.662;10.162;2022-10-29T12:37:30;11.15;;;2.60;;
28587;SDS011;15787;49.662;10.162;2022-10-29T12:40:08;13.73;;;2.85;;
28587;SDS011;15787;49.662;10.162;2022-10-29T12:42:44;11.93;;;2.35;;
28587;SDS011;15787;49.662;10.162;2022-10-29T12:45:19;12.53;;;2.80;;
28587;SDS011;15787;49.662;10.162;2022-10-29T12:47:57;12.50;;;2.63;;
28587;SDS011;15787;49.662;10.162;2022-10-29T12:50:38;13.45;;;2.67;;
28587;SDS011;15787;49.662;10.162;2022-10-29T12:53:15;8.27;;;2.22;;
28587;SDS011;15787;49.662;10.162;2022-10-29T12:58:41;15.02;;;3.00;;
28587;SDS011;15787;49.662;10.162;2022-10-29T13:01:41;12.00;;;3.03;;
28587;SDS011;15787;49.662;10.162;2022-10-29T13:04:31;9.20;;;2.60;;
28587;SDS011;15787;49.662;10.162;2022-10-29T13:07:03;14.32;;;3.55;;
28587;SDS011;15787;49.662;10.162;2022-10-29T13:09:48;11.45;;;2.70;;
28587;SDS011;15787;49.662;10.162;2022-10-29T13:13:00;13.80;;;3.78;;
28587;SDS011;15787;49.662;10.162;2022-10-29T13:15:31;14.02;;;3.72;;
28587;SDS011;15787;49.662;10.162;2022-10-29T13:18:04;12.52;;;3.05;;
28587;SDS011;15787;49.662;10.162;2022-10-29T13:20:45;15.98;;;3.35;;
28587;SDS011;15787;49.662;10.162;2022-10-29T13:26:06;14.05;;;3.60;;
28587;SDS011;15787;49.662;10.162;2022-10-29T13:28:47;10.68;;;2.95;;
28587;SDS011;15787;49.662;10.162;2022-10-29T13:43:20;9.10;;;2.63;;
28587;SDS011;15787;49.662;10.162;2022-10-29T13:45:51;11.63;;;3.80;;
28587;SDS011;15787;49.662;10.162;2022-10-29T13:48:31;11.55;;;2.88;;
28587;SDS011;15787;49.662;10.162;2022-10-29T13:51:02;12.93;;;3.03;;
28587;SDS011;15787;49.662;10.162;2022-10-29T13:53:35;13.10;;;3.10;;
28587;SDS011;15787;49.662;10.162;2022-10-29T13:56:09;10.20;;;2.65;;
28587;SDS011;15787;49.662;10.162;2022-10-29T13:58:45;15.63;;;3.20;;
28587;SDS011;15787;49.662;10.162;2022-10-29T14:01:18;13.57;;;2.92;;
28587;SDS011;15787;49.662;10.162;2022-10-29T14:03:53;11.10;;;3.30;;
28587;SDS011;15787;49.662;10.162;2022-10-29T14:06:27;11.85;;;3.40;;
28587;SDS011;15787;49.662;10.162;2022-10-29T14:09:02;10.90;;;3.90;;
28587;SDS011;15787;49.662;10.162;2022-10-29T14:11:40;12.57;;;2.70;;
28587;SDS011;15787;49.662;10.162;2022-10-29T14:14:19;19.58;;;4.00;;
28587;SDS011;15787;49.662;10.162;2022-10-29T14:16:51;11.45;;;3.30;;
28587;SDS011;15787;49.662;10.162;2022-10-29T14:19:35;18.33;;;3.22;;
28587;SDS011;15787;49.662;10.162;2022-10-29T14:25:02;15.70;;;4.28;;
28587;SDS011;15787;49.662;10.162;2022-10-29T14:28:08;14.65;;;3.33;;
28587;SDS011;15787;49.662;10.162;2022-10-29T14:30:58;10.32;;;3.63;;
28587;SDS011;15787;49.662;10.162;2022-10-29T14:33:29;14.13;;;3.20;;
28587;SDS011;15787;49.662;10.162;2022-10-29T14:36:02;9.55;;;3.00;;
28587;SDS011;15787;49.662;10.162;2022-10-29T14:38:40;14.32;;;2.90;;
28587;SDS011;15787;49.662;10.162;2022-10-29T14:41:09;8.63;;;3.17;;
28587;SDS011;15787;49.662;10.162;2022-10-29T14:43:38;8.82;;;2.83;;
28587;SDS011;15787;49.662;10.162;2022-10-29T14:46:11;13.20;;;3.20;;
28587;SDS011;15787;49.662;10.162;2022-10-29T14:48:50;12.65;;;3.75;;
28587;SDS011;15787;49.662;10.162;2022-10-29T14:51:21;13.73;;;3.42;;
28587;SDS011;15787;49.662;10.162;2022-10-29T14:53:53;12.13;;;4.28;;
28587;SDS011;15787;49.662;10.162;2022-10-29T14:56:28;9.45;;;3.38;;
28587;SDS011;15787;49.662;10.162;2022-10-29T14:59:00;12.38;;;4.38;;
28587;SDS011;15787;49.662;10.162;2022-10-29T15:01:33;13.98;;;5.57;;
28587;SDS011;15787;49.662;10.162;2022-10-29T15:04:17;17.15;;;3.97;;
28587;SDS011;15787;49.662;10.162;2022-10-29T15:06:46;12.07;;;3.83;;
28587;SDS011;15787;49.662;10.162;2022-10-29T15:09:15;15.48;;;3.92;;
28587;SDS011;15787;49.662;10.162;2022-10-29T15:12:01;14.75;;;4.50;;
28587;SDS011;15787;49.662;10.162;2022-10-29T15:14:34;14.52;;;4.05;;
28587;SDS011;15787;49.662;10.162;2022-10-29T15:17:08;11.73;;;4.60;;
28587;SDS011;15787;49.662;10.162;2022-10-29T15:19:42;11.70;;;4.28;;
28587;SDS011;15787;49.662;10.162;2022-10-29T15:22:17;17.13;;;4.53;;
28587;SDS011;15787;49.662;10.162;2022-10-29T15:24:48;20.70;;;5.18;;
28587;SDS011;15787;49.662;10.162;2022-10-29T15:27:19;14.35;;;4.93;;
28587;SDS011;15787;49.662;10.162;2022-10-29T15:32:18;18.30;;;4.13;;
28587;SDS011;15787;49.662;10.162;2022-10-29T15:34:50;13.45;;;5.10;;
28587;SDS011;15787;49.662;10.162;2022-10-29T15:37:24;14.15;;;6.05;;